createdAt,value
2018-09-18T00:01:09.723Z,5.57
2018-09-18T00:03:37.270Z,6.23
2018-09-18T00:06:04.831Z,6.47
2018-09-18T00:08:32.333Z,5.10
2018-09-18T00:10:59.927Z,5.20
2018-09-18T00:13:27.424Z,6.20
2018-09-18T00:15:54.907Z,5.60
2018-09-18T00:18:22.362Z,4.97
2018-09-18T00:20:49.996Z,5.13
2018-09-18T00:23:17.419Z,5.47
2018-09-18T00:25:44.896Z,6.07
2018-09-18T00:28:12.336Z,4.90
2018-09-18T00:30:39.816Z,5.97
2018-09-18T00:33:07.250Z,5.83
2018-09-18T00:35:34.724Z,5.83
2018-09-18T00:38:02.347Z,7.87
2018-09-18T00:40:29.801Z,5.50
2018-09-18T00:42:57.268Z,6.33
2018-09-18T00:45:24.704Z,6.10
2018-09-18T00:47:52.193Z,6.50
2018-09-18T00:50:19.696Z,7.43
2018-09-18T00:52:47.181Z,6.13
2018-09-18T00:55:14.618Z,6.53
2018-09-18T00:57:42.152Z,6.27
2018-09-18T01:00:10.455Z,6.00
2018-09-18T01:02:37.957Z,7.17
2018-09-18T01:05:05.420Z,6.60
2018-09-18T01:07:32.975Z,5.90
2018-09-18T01:10:01.031Z,5.93
2018-09-18T01:12:28.579Z,6.20
2018-09-18T01:14:56.061Z,5.90
2018-09-18T01:17:23.535Z,5.73
2018-09-18T01:19:50.981Z,5.73
2018-09-18T01:22:18.450Z,5.50
2018-09-18T01:24:45.890Z,6.27
2018-09-18T01:27:13.372Z,6.10
2018-09-18T01:29:40.808Z,6.60
2018-09-18T01:32:08.269Z,5.90
2018-09-18T01:34:35.790Z,7.53
2018-09-18T01:37:03.318Z,6.20
2018-09-18T01:39:30.854Z,5.83
2018-09-18T01:41:58.442Z,6.03
2018-09-18T01:44:25.865Z,6.13
2018-09-18T01:46:53.325Z,6.50
2018-09-18T01:49:20.751Z,5.60
2018-09-18T01:51:48.228Z,6.17
2018-09-18T01:54:15.656Z,6.50
2018-09-18T01:56:43.184Z,5.90
2018-09-18T01:59:10.675Z,6.10
2018-09-18T02:01:38.224Z,5.47
2018-09-18T02:04:05.709Z,6.20
2018-09-18T02:06:33.148Z,5.70
2018-09-18T02:09:00.933Z,5.60
2018-09-18T02:11:28.418Z,6.30
2018-09-18T02:13:55.879Z,5.57
2018-09-18T02:16:23.304Z,6.97
2018-09-18T02:18:50.782Z,6.27
2018-09-18T02:21:18.287Z,6.10
2018-09-18T02:23:45.752Z,6.17
2018-09-18T02:26:13.177Z,6.83
2018-09-18T02:28:40.679Z,6.13
2018-09-18T02:31:08.125Z,6.57
2018-09-18T02:33:35.590Z,6.30
2018-09-18T02:36:03.230Z,8.77
2018-09-18T02:38:30.709Z,7.00
2018-09-18T02:40:58.247Z,7.47
2018-09-18T02:43:25.818Z,6.83
2018-09-18T02:45:53.256Z,7.30
2018-09-18T02:48:20.719Z,7.87
2018-09-18T02:50:48.188Z,8.00
2018-09-18T02:53:15.657Z,7.40
2018-09-18T02:55:43.087Z,6.50
2018-09-18T02:58:10.556Z,6.47
2018-09-18T03:00:37.989Z,6.43
2018-09-18T03:03:05.490Z,7.00
2018-09-18T03:05:32.937Z,7.53
2018-09-18T03:08:00.424Z,6.83
2018-09-18T03:10:27.861Z,6.37
2018-09-18T03:12:55.340Z,7.20
2018-09-18T03:15:22.787Z,7.17
2018-09-18T03:17:50.287Z,8.40
2018-09-18T03:20:17.732Z,7.97
2018-09-18T03:22:45.212Z,7.30
2018-09-18T03:25:12.673Z,7.40
2018-09-18T03:27:40.237Z,7.53
2018-09-18T03:30:07.770Z,7.03
2018-09-18T03:32:35.453Z,7.73
2018-09-18T03:35:02.986Z,7.40
2018-09-18T03:37:30.468Z,7.00
2018-09-18T03:39:58.028Z,8.20
2018-09-18T03:42:25.455Z,7.23
2018-09-18T03:44:52.940Z,6.77
2018-09-18T03:47:21.126Z,7.60
2018-09-18T03:49:49.325Z,8.03
2018-09-18T03:52:16.764Z,7.57
2018-09-18T03:54:44.237Z,7.90
2018-09-18T03:57:11.762Z,7.70
2018-09-18T03:59:39.220Z,7.83
2018-09-18T04:02:06.692Z,7.63
2018-09-18T04:04:34.161Z,7.13
2018-09-18T04:07:01.698Z,7.47
2018-09-18T04:09:29.176Z,7.13
2018-09-18T04:11:56.612Z,7.87
2018-09-18T04:14:24.068Z,7.50
2018-09-18T04:16:51.618Z,7.77
2018-09-18T04:19:19.086Z,7.60
2018-09-18T04:21:46.535Z,8.17
2018-09-18T04:24:13.988Z,8.50
2018-09-18T04:26:41.637Z,7.70
2018-09-18T04:29:09.748Z,8.47
2018-09-18T04:31:38.551Z,8.27
2018-09-18T04:34:06.091Z,7.70
2018-09-18T04:36:33.549Z,8.23
2018-09-18T04:39:01.345Z,8.00
2018-09-18T04:41:28.846Z,7.57
2018-09-18T04:43:56.311Z,7.80
2018-09-18T04:46:23.916Z,8.40
2018-09-18T04:48:51.507Z,6.80
2018-09-18T04:51:18.948Z,6.47
2018-09-18T04:53:46.576Z,8.03
2018-09-18T04:56:14.030Z,7.47
2018-09-18T04:58:41.557Z,8.43
2018-09-18T05:01:09.036Z,8.67
2018-09-18T05:03:36.484Z,7.47
2018-09-18T05:06:04.028Z,8.43
2018-09-18T05:08:31.697Z,8.77
2018-09-18T05:10:59.182Z,8.70
2018-09-18T05:13:26.707Z,8.53
2018-09-18T05:15:54.172Z,8.00
2018-09-18T05:18:21.602Z,8.47
2018-09-18T05:20:49.076Z,7.83
2018-09-18T05:23:16.503Z,7.87
2018-09-18T05:25:43.963Z,8.33
2018-09-18T05:28:11.549Z,7.43
2018-09-18T05:30:39.108Z,7.50
2018-09-18T05:33:06.613Z,7.40
2018-09-18T05:35:34.330Z,9.93
2018-09-18T05:38:01.797Z,9.57
2018-09-18T05:40:29.260Z,7.93
2018-09-18T05:42:56.713Z,7.77
2018-09-18T05:45:24.171Z,7.00
2018-09-18T05:47:51.714Z,13.10
2018-09-18T05:50:19.182Z,7.50
2018-09-18T05:52:46.612Z,8.30
2018-09-18T05:55:14.062Z,7.80
2018-09-18T05:57:41.542Z,10.33
2018-09-18T06:00:09.105Z,7.50
2018-09-18T06:02:38.633Z,8.50
2018-09-18T06:05:06.105Z,7.13
2018-09-18T06:07:33.548Z,7.97
2018-09-18T06:10:01.039Z,7.57
2018-09-18T06:12:28.514Z,7.27
2018-09-18T06:14:55.980Z,6.73
2018-09-18T06:17:23.408Z,7.80
2018-09-18T06:19:50.902Z,7.47
2018-09-18T06:22:18.372Z,6.97
2018-09-18T06:24:45.879Z,6.63
2018-09-18T06:27:13.316Z,7.47
2018-09-18T06:29:40.749Z,7.10
2018-09-18T06:32:08.243Z,6.93
2018-09-18T06:34:35.744Z,6.87
2018-09-18T06:37:03.273Z,7.20
2018-09-18T06:39:30.664Z,6.80
2018-09-18T06:41:58.121Z,9.23
2018-09-18T06:44:25.528Z,6.87
2018-09-18T06:46:52.981Z,7.80
2018-09-18T06:49:20.413Z,6.87
2018-09-18T06:51:47.927Z,7.87
2018-09-18T06:54:15.391Z,7.33
2018-09-18T06:56:42.853Z,6.73
2018-09-18T06:59:10.358Z,6.83
2018-09-18T07:01:37.846Z,7.23
2018-09-18T07:04:05.327Z,6.67
2018-09-18T07:06:32.768Z,7.07
2018-09-18T07:09:00.443Z,6.03
2018-09-18T07:11:27.903Z,8.50
2018-09-18T07:13:55.320Z,8.40
2018-09-18T07:16:22.792Z,9.03
2018-09-18T07:18:50.272Z,9.07
2018-09-18T07:21:17.729Z,6.27
2018-09-18T07:23:45.288Z,11.40
2018-09-18T07:26:12.847Z,9.43
2018-09-18T07:28:40.315Z,7.03
2018-09-18T07:31:07.887Z,7.23
2018-09-18T07:33:35.349Z,7.63
2018-09-18T07:36:02.848Z,7.60
2018-09-18T07:38:30.259Z,7.87
2018-09-18T07:40:57.734Z,11.33
2018-09-18T07:43:25.172Z,16.50
2018-09-18T07:45:52.705Z,8.57
2018-09-18T07:48:20.128Z,9.70
2018-09-18T07:50:47.577Z,16.90
2018-09-18T07:53:14.999Z,21.07
2018-09-18T07:55:42.425Z,39.80
2018-09-18T07:58:09.887Z,15.10
2018-09-18T08:00:37.341Z,10.93
2018-09-18T08:03:04.879Z,11.63
2018-09-18T08:05:32.301Z,7.27
2018-09-18T08:07:59.792Z,8.57
2018-09-18T08:10:27.288Z,6.70
2018-09-18T08:12:54.736Z,6.37
2018-09-18T08:15:22.288Z,6.63
2018-09-18T08:17:49.847Z,11.40
2018-09-18T08:20:17.280Z,8.47
2018-09-18T08:22:44.737Z,7.10
2018-09-18T08:25:12.215Z,6.80
2018-09-18T08:27:39.721Z,7.20
2018-09-18T08:30:07.220Z,9.20
2018-09-18T08:32:34.780Z,6.43
2018-09-18T08:35:02.194Z,8.10
2018-09-18T08:37:29.675Z,7.17
2018-09-18T08:39:57.184Z,6.00
2018-09-18T08:42:24.600Z,9.40
2018-09-18T08:44:52.025Z,6.70
2018-09-18T08:47:19.484Z,6.63
2018-09-18T08:49:46.915Z,6.80
2018-09-18T08:52:14.376Z,6.73
2018-09-18T08:54:41.829Z,6.37
2018-09-18T08:57:09.327Z,6.73
2018-09-18T08:59:36.767Z,6.07
2018-09-18T09:02:04.252Z,5.93
2018-09-18T09:04:31.707Z,5.80
2018-09-18T09:06:59.195Z,6.33
2018-09-18T09:09:26.720Z,7.00
2018-09-18T09:11:54.094Z,7.20
2018-09-18T09:14:21.580Z,6.70
2018-09-18T09:16:49.113Z,8.30
2018-09-18T09:19:16.569Z,5.53
2018-09-18T09:21:44.056Z,7.13
2018-09-18T09:24:11.468Z,7.33
2018-09-18T09:26:38.968Z,5.13
2018-09-18T09:29:06.421Z,7.87
2018-09-18T09:31:33.955Z,5.33
2018-09-18T09:34:01.553Z,5.37
2018-09-18T09:36:28.993Z,5.20
2018-09-18T09:38:56.564Z,7.63
2018-09-18T09:41:23.973Z,5.00
2018-09-18T09:43:51.571Z,8.60
2018-09-18T09:46:18.932Z,8.70
2018-09-18T09:48:46.460Z,5.87
2018-09-18T09:51:13.947Z,5.20
2018-09-18T09:53:41.369Z,5.13
2018-09-18T09:56:08.800Z,5.50
2018-09-18T09:58:36.258Z,5.17
2018-09-18T10:01:09.604Z,5.67
2018-09-18T10:03:37.026Z,7.63
2018-09-18T10:06:04.510Z,5.37
2018-09-18T10:08:31.966Z,7.57
2018-09-18T10:10:59.425Z,5.90
2018-09-18T10:13:26.883Z,6.43
2018-09-18T10:15:54.421Z,5.17
2018-09-18T10:18:21.882Z,5.20
2018-09-18T10:20:49.328Z,6.67
2018-09-18T10:23:16.996Z,5.40
2018-09-18T10:25:44.442Z,5.10
2018-09-18T10:28:12.012Z,5.10
2018-09-18T10:30:39.473Z,5.20
2018-09-18T10:33:06.947Z,5.00
2018-09-18T10:35:34.361Z,5.50
2018-09-18T10:38:01.896Z,5.00
2018-09-18T10:40:29.338Z,5.40
2018-09-18T10:42:56.843Z,5.10
2018-09-18T10:45:24.241Z,6.20
2018-09-18T10:47:51.708Z,4.90
2018-09-18T10:50:19.167Z,5.00
2018-09-18T10:52:46.603Z,4.70
2018-09-18T10:55:14.143Z,4.90
2018-09-18T10:57:41.575Z,4.97
2018-09-18T11:00:09.339Z,5.40
2018-09-18T11:02:36.820Z,4.57
2018-09-18T11:05:04.499Z,6.20
2018-09-18T11:07:32.018Z,5.07
2018-09-18T11:09:59.571Z,5.13
2018-09-18T11:12:26.999Z,5.23
2018-09-18T11:14:54.523Z,5.50
2018-09-18T11:17:21.892Z,5.57
2018-09-18T11:19:49.355Z,4.50
2018-09-18T11:22:16.872Z,4.60
2018-09-18T11:24:44.375Z,4.20
2018-09-18T11:27:11.755Z,4.70
2018-09-18T11:29:39.257Z,4.87
2018-09-18T11:32:06.691Z,4.30
2018-09-18T11:34:34.149Z,4.63
2018-09-18T11:37:01.590Z,4.23
2018-09-18T11:39:29.045Z,3.70
2018-09-18T11:41:56.489Z,6.30
2018-09-18T11:44:24.192Z,4.37
2018-09-18T11:46:51.637Z,8.80
2018-09-18T11:49:19.088Z,6.13
2018-09-18T11:51:46.522Z,4.23
2018-09-18T11:54:13.979Z,4.13
2018-09-18T11:56:41.483Z,5.03
2018-09-18T11:59:08.904Z,3.93
2018-09-18T12:01:36.364Z,4.43
2018-09-18T12:04:03.854Z,4.10
2018-09-18T12:06:31.297Z,4.80
2018-09-18T12:08:58.761Z,4.40
2018-09-18T12:11:26.249Z,4.10
2018-09-18T12:13:53.691Z,5.30
2018-09-18T12:16:21.156Z,5.60
2018-09-18T12:18:48.580Z,8.00
2018-09-18T12:21:16.076Z,4.43
2018-09-18T12:23:43.509Z,3.73
2018-09-18T12:26:10.993Z,3.60
2018-09-18T12:28:38.554Z,4.33
2018-09-18T12:31:06.018Z,5.13
2018-09-18T12:33:33.461Z,5.03
2018-09-18T12:36:00.922Z,3.97
2018-09-18T12:38:28.378Z,4.10
2018-09-18T12:40:55.841Z,4.40
2018-09-18T12:43:23.279Z,4.53
2018-09-18T12:45:50.775Z,3.80
2018-09-18T12:48:18.286Z,5.40
2018-09-18T12:50:45.794Z,3.60
2018-09-18T12:53:13.285Z,3.63
2018-09-18T12:55:40.739Z,3.43
2018-09-18T12:58:08.219Z,3.20
2018-09-18T13:00:35.709Z,4.77
2018-09-18T13:03:03.157Z,3.37
2018-09-18T13:05:30.617Z,3.60
2018-09-18T13:07:58.114Z,3.30
2018-09-18T13:10:25.546Z,3.87
2018-09-18T13:12:53.002Z,5.43
2018-09-18T13:15:20.471Z,4.20
2018-09-18T13:17:47.959Z,4.30
2018-09-18T13:20:15.493Z,3.60
2018-09-18T13:22:43.599Z,4.13
2018-09-18T13:25:11.018Z,4.13
2018-09-18T13:27:38.659Z,5.23
2018-09-18T13:30:06.725Z,4.47
2018-09-18T13:32:34.168Z,4.00
2018-09-18T13:35:01.911Z,3.77
2018-09-18T13:37:29.349Z,5.40
2018-09-18T13:39:56.827Z,4.03
2018-09-18T13:42:24.354Z,3.90
2018-09-18T13:44:51.804Z,4.30
2018-09-18T13:47:19.251Z,4.10
2018-09-18T13:49:46.768Z,4.00
2018-09-18T13:52:14.233Z,4.57
2018-09-18T13:54:41.717Z,4.17
2018-09-18T13:57:09.361Z,4.40
2018-09-18T13:59:36.915Z,9.37
2018-09-18T14:02:04.433Z,8.80
2018-09-18T14:04:31.998Z,4.50
2018-09-18T14:06:59.353Z,4.40
2018-09-18T14:09:26.908Z,5.03
2018-09-18T14:11:54.330Z,3.93
2018-09-18T14:14:21.993Z,4.40
2018-09-18T14:16:49.473Z,4.10
2018-09-18T14:19:16.941Z,3.97
2018-09-18T14:21:44.400Z,4.30
2018-09-18T14:24:11.893Z,4.30
2018-09-18T14:26:39.599Z,4.03
2018-09-18T14:29:06.958Z,3.83
2018-09-18T14:31:34.521Z,4.80
2018-09-18T14:34:01.988Z,4.53
2018-09-18T14:36:29.462Z,4.27
2018-09-18T14:38:56.885Z,4.13
2018-09-18T14:41:24.397Z,4.30
2018-09-18T14:43:51.825Z,3.77
2018-09-18T14:46:19.305Z,3.90
2018-09-18T14:48:46.863Z,4.10
2018-09-18T14:51:14.420Z,4.10
2018-09-18T14:53:41.896Z,3.80
2018-09-18T14:56:16.320Z,4.00
2018-09-18T14:58:43.810Z,3.80
2018-09-18T15:01:11.371Z,3.70
2018-09-18T15:03:38.902Z,3.53
2018-09-18T15:06:06.388Z,5.10
2018-09-18T15:08:33.862Z,3.40
2018-09-18T15:11:01.296Z,3.90
2018-09-18T15:13:28.790Z,4.00
2018-09-18T15:15:56.219Z,3.60
2018-09-18T15:18:23.651Z,4.53
2018-09-18T15:20:51.119Z,3.53
2018-09-18T15:23:18.602Z,4.87
2018-09-18T15:25:46.142Z,3.90
2018-09-18T15:28:13.596Z,3.70
2018-09-18T15:30:41.214Z,3.80
2018-09-18T15:33:08.693Z,3.80
2018-09-18T15:35:36.147Z,4.90
2018-09-18T15:38:03.636Z,3.40
2018-09-18T15:40:31.068Z,4.13
2018-09-18T15:42:58.693Z,5.33
2018-09-18T15:45:26.261Z,4.53
2018-09-18T15:47:53.764Z,3.93
2018-09-18T15:50:21.226Z,3.70
2018-09-18T15:52:48.746Z,4.00
2018-09-18T15:55:16.284Z,3.40
2018-09-18T15:57:43.699Z,3.60
2018-09-18T16:00:11.633Z,3.43
2018-09-18T16:02:39.245Z,3.50
2018-09-18T16:05:06.689Z,4.50
2018-09-18T16:07:34.126Z,3.40
2018-09-18T16:10:01.693Z,3.70
2018-09-18T16:12:29.180Z,4.53
2018-09-18T16:14:56.678Z,3.27
2018-09-18T16:17:24.117Z,3.27
2018-09-18T16:19:51.636Z,3.60
2018-09-18T16:22:19.093Z,3.40
2018-09-18T16:24:46.672Z,4.23
2018-09-18T16:27:14.517Z,3.27
2018-09-18T16:29:42.059Z,3.40
2018-09-18T16:32:09.561Z,3.10
2018-09-18T16:34:37.033Z,3.17
2018-09-18T16:37:04.520Z,3.10
2018-09-18T16:39:32.011Z,3.50
2018-09-18T16:41:59.480Z,3.30
2018-09-18T16:44:27.003Z,3.47
2018-09-18T16:46:54.543Z,3.70
2018-09-18T16:49:21.960Z,3.60
2018-09-18T16:51:49.698Z,4.40
2018-09-18T16:54:17.134Z,3.50
2018-09-18T16:56:44.627Z,6.90
2018-09-18T16:59:12.096Z,4.30
2018-09-18T17:01:39.646Z,3.97
2018-09-18T17:04:07.103Z,3.40
2018-09-18T17:06:34.619Z,3.30
2018-09-18T17:09:02.177Z,3.90
2018-09-18T17:11:29.647Z,4.27
2018-09-18T17:13:57.090Z,6.67
2018-09-18T17:16:24.642Z,3.73
2018-09-18T17:18:52.064Z,3.60
2018-09-18T17:21:19.557Z,4.10
2018-09-18T17:23:46.997Z,5.30
2018-09-18T17:26:14.505Z,4.60
2018-09-18T17:28:42.191Z,4.00
2018-09-18T17:31:09.514Z,3.97
2018-09-18T17:33:37.314Z,3.83
2018-09-18T17:36:05.337Z,3.70
2018-09-18T17:38:33.004Z,3.87
2018-09-18T17:41:01.041Z,4.13
2018-09-18T17:43:28.616Z,4.23
2018-09-18T17:45:56.053Z,5.00
2018-09-18T17:48:23.545Z,4.27
2018-09-18T17:50:50.986Z,3.73
2018-09-18T17:53:18.417Z,4.80
2018-09-18T17:55:45.913Z,3.60
2018-09-18T17:58:13.356Z,3.90
2018-09-18T18:00:40.908Z,3.83
2018-09-18T18:03:08.360Z,7.10
2018-09-18T18:05:35.863Z,4.00
2018-09-18T18:08:03.368Z,4.30
2018-09-18T18:10:30.812Z,4.50
2018-09-18T18:12:58.300Z,4.43
2018-09-18T18:15:25.883Z,4.20
2018-09-18T18:17:53.405Z,4.10
2018-09-18T18:20:20.941Z,4.73
2018-09-18T18:22:48.339Z,5.40
2018-09-18T18:25:15.822Z,5.37
2018-09-18T18:27:43.257Z,5.20
2018-09-18T18:30:10.736Z,4.63
2018-09-18T18:32:38.169Z,4.57
2018-09-18T18:35:05.664Z,6.43
2018-09-18T18:37:33.151Z,4.63
2018-09-18T18:40:01.483Z,4.80
2018-09-18T18:42:28.930Z,5.13
2018-09-18T18:44:56.369Z,5.80
2018-09-18T18:47:23.909Z,4.93
2018-09-18T18:49:51.385Z,4.83
2018-09-18T18:52:18.862Z,5.33
2018-09-18T18:54:46.364Z,5.37
2018-09-18T18:57:13.801Z,5.10
2018-09-18T18:59:41.281Z,5.00
2018-09-18T19:02:09.255Z,4.90
2018-09-18T19:04:36.740Z,4.50
2018-09-18T19:07:04.230Z,7.33
2018-09-18T19:09:31.721Z,6.70
2018-09-18T19:11:59.162Z,5.50
2018-09-18T19:14:26.639Z,5.33
2018-09-18T19:16:54.084Z,4.70
2018-09-18T19:19:21.580Z,6.30
2018-09-18T19:21:49.048Z,5.43
2018-09-18T19:24:16.489Z,4.73
2018-09-18T19:26:43.955Z,5.00
2018-09-18T19:29:11.401Z,5.50
2018-09-18T19:31:38.966Z,4.83
2018-09-18T19:34:06.528Z,4.73
2018-09-18T19:36:34.009Z,5.17
2018-09-18T19:39:01.559Z,5.53
2018-09-18T19:41:29.178Z,4.97
2018-09-18T19:43:56.612Z,6.00
2018-09-18T19:46:24.126Z,7.63
2018-09-18T19:48:51.573Z,5.60
2018-09-18T19:51:19.083Z,6.23
2018-09-18T19:53:46.625Z,5.37
2018-09-18T19:56:14.153Z,6.03
2018-09-18T19:58:41.610Z,6.43
2018-09-18T20:01:09.139Z,5.80
2018-09-18T20:03:36.612Z,6.00
2018-09-18T20:06:04.039Z,6.30
2018-09-18T20:08:31.549Z,5.97
2018-09-18T20:10:59.117Z,5.43
2018-09-18T20:13:26.599Z,6.30
2018-09-18T20:15:55.380Z,5.80
2018-09-18T20:18:22.873Z,6.60
2018-09-18T20:20:50.472Z,6.70
2018-09-18T20:23:18.012Z,6.97
2018-09-18T20:25:45.451Z,7.63
2018-09-18T20:28:13.029Z,7.57
2018-09-18T20:30:40.476Z,7.33
2018-09-18T20:33:08.048Z,9.37
2018-09-18T20:35:35.497Z,9.57
2018-09-18T20:38:03.109Z,8.83
2018-09-18T20:40:30.630Z,9.70
2018-09-18T20:42:58.225Z,13.73
2018-09-18T20:45:25.840Z,10.67
2018-09-18T20:47:53.282Z,10.73
2018-09-18T20:50:22.635Z,11.03
2018-09-18T20:52:51.225Z,12.77
2018-09-18T20:55:19.052Z,10.83
2018-09-18T20:57:46.637Z,11.00
2018-09-18T21:00:24.412Z,14.20
2018-09-18T21:02:51.961Z,10.97
2018-09-18T21:05:19.423Z,11.97
2018-09-18T21:07:46.981Z,12.60
2018-09-18T21:10:20.549Z,10.80
2018-09-18T21:12:48.033Z,12.57
2018-09-18T21:15:15.474Z,10.83
2018-09-18T21:17:42.974Z,8.87
2018-09-18T21:20:10.396Z,13.37
2018-09-18T21:22:37.910Z,13.93
2018-09-18T21:25:12.212Z,10.40
2018-09-18T21:27:40.103Z,11.37
2018-09-18T21:30:07.604Z,11.13
2018-09-18T21:32:35.251Z,9.93
2018-09-18T21:35:02.689Z,9.33
2018-09-18T21:37:30.127Z,9.00
2018-09-18T21:39:57.608Z,11.60
2018-09-18T21:42:25.110Z,15.87
2018-09-18T21:44:52.652Z,10.23
2018-09-18T21:47:20.159Z,11.20
2018-09-18T21:49:47.769Z,8.97
2018-09-18T21:52:15.304Z,10.97
2018-09-18T21:54:42.761Z,11.93
2018-09-18T21:57:10.552Z,13.13
2018-09-18T21:59:37.990Z,8.90
2018-09-18T22:02:05.469Z,11.87
2018-09-18T22:04:33.217Z,9.50
2018-09-18T22:07:00.766Z,9.63
2018-09-18T22:09:28.246Z,16.07
2018-09-18T22:11:55.696Z,11.53
2018-09-18T22:14:23.124Z,8.60
2018-09-18T22:16:50.573Z,9.23
2018-09-18T22:19:18.010Z,11.60
2018-09-18T22:21:45.469Z,11.37
2018-09-18T22:24:12.912Z,10.13
2018-09-18T22:26:40.358Z,11.90
2018-09-18T22:29:07.788Z,11.00
2018-09-18T22:31:35.242Z,11.33
2018-09-18T22:34:02.664Z,14.60
2018-09-18T22:36:30.128Z,10.47
2018-09-18T22:38:57.584Z,9.40
2018-09-18T22:41:25.037Z,11.00
2018-09-18T22:43:52.472Z,11.63
2018-09-18T22:46:19.923Z,10.20
2018-09-18T22:48:47.382Z,11.80
2018-09-18T22:51:14.840Z,16.40
2018-09-18T22:53:42.448Z,12.30
2018-09-18T22:56:10.721Z,15.50
2018-09-18T22:58:38.155Z,13.03
2018-09-18T23:01:05.672Z,11.23
2018-09-18T23:03:33.125Z,13.30
2018-09-18T23:06:00.664Z,11.00
2018-09-18T23:08:28.157Z,11.30
2018-09-18T23:10:55.595Z,13.43
2018-09-18T23:13:23.056Z,12.27
2018-09-18T23:15:50.483Z,10.93
2018-09-18T23:18:18.052Z,10.00
2018-09-18T23:20:45.755Z,10.20
2018-09-18T23:23:13.203Z,8.07
2018-09-18T23:25:40.657Z,11.33
2018-09-18T23:28:08.185Z,12.93
2018-09-18T23:30:35.606Z,9.70
2018-09-18T23:33:03.079Z,11.50
2018-09-18T23:35:30.496Z,7.67
2018-09-18T23:37:57.940Z,8.00
2018-09-18T23:40:25.381Z,10.77
2018-09-18T23:42:52.826Z,8.20
2018-09-18T23:45:20.255Z,8.43
2018-09-18T23:47:47.708Z,10.97
2018-09-18T23:50:15.133Z,8.77
2018-09-18T23:52:42.597Z,9.43
2018-09-18T23:55:10.020Z,12.60
2018-09-18T23:57:37.484Z,11.37
